createdAt,value
2019-02-05T00:00:48.448Z,33.83
2019-02-05T00:03:52.904Z,33.33
2019-02-05T00:06:57.968Z,33.07
2019-02-05T00:10:02.378Z,30.93
2019-02-05T00:13:07.022Z,32.27
2019-02-05T00:16:12.538Z,33.90
2019-02-05T00:19:16.881Z,31.93
2019-02-05T00:22:21.310Z,31.93
2019-02-05T00:25:25.584Z,31.27
2019-02-05T00:28:31.604Z,26.63
2019-02-05T00:31:35.888Z,36.53
2019-02-05T00:34:40.303Z,38.13
2019-02-05T00:37:44.800Z,35.70
2019-02-05T00:40:49.086Z,35.73
2019-02-05T00:43:53.390Z,39.17
2019-02-05T00:46:57.688Z,33.70
2019-02-05T00:50:01.985Z,29.80
2019-02-05T00:53:06.283Z,41.20
2019-02-05T00:56:17.414Z,39.70
2019-02-05T00:59:16.642Z,44.23
2019-02-05T01:02:24.103Z,39.63
2019-02-05T01:05:28.789Z,42.10
2019-02-05T01:08:33.065Z,34.73
2019-02-05T01:11:39.426Z,35.10
2019-02-05T01:14:43.811Z,36.17
2019-02-05T01:17:50.517Z,38.43
2019-02-05T01:20:54.816Z,31.63
2019-02-05T01:23:59.111Z,40.17
2019-02-05T01:27:03.762Z,40.20
2019-02-05T01:30:10.636Z,43.23
2019-02-05T01:33:14.929Z,44.10
2019-02-05T01:36:19.429Z,35.70
2019-02-05T01:39:23.741Z,43.90
2019-02-05T01:42:28.033Z,36.97
2019-02-05T01:45:32.327Z,40.80
2019-02-05T01:48:36.607Z,47.00
2019-02-05T01:51:40.996Z,45.37
2019-02-05T01:54:45.785Z,46.67
2019-02-05T01:57:50.155Z,31.20
2019-02-05T02:00:57.399Z,38.60
2019-02-05T02:04:01.837Z,36.47
2019-02-05T02:07:06.728Z,34.37
2019-02-05T02:10:13.610Z,33.73
2019-02-05T02:13:18.065Z,28.17
2019-02-05T02:16:22.351Z,31.37
2019-02-05T02:19:26.771Z,29.20
2019-02-05T02:22:33.001Z,28.87
2019-02-05T02:25:44.308Z,30.53
2019-02-05T02:28:48.772Z,26.23
2019-02-05T02:31:54.536Z,27.23
2019-02-05T02:34:59.206Z,32.17
2019-02-05T02:38:04.112Z,22.90
2019-02-05T02:41:08.632Z,27.77
2019-02-05T02:44:13.286Z,24.27
2019-02-05T02:47:17.561Z,22.60
2019-02-05T02:50:21.866Z,26.73
2019-02-05T02:53:26.423Z,26.10
2019-02-05T02:56:30.782Z,28.87
2019-02-05T02:59:35.110Z,26.90
2019-02-05T03:02:39.582Z,28.23
2019-02-05T03:05:44.336Z,26.43
2019-02-05T03:08:48.767Z,28.90
2019-02-05T03:11:53.444Z,27.20
2019-02-05T03:14:57.741Z,28.07
2019-02-05T03:18:03.867Z,26.13
2019-02-05T03:21:08.150Z,24.53
2019-02-05T03:24:12.450Z,27.63
2019-02-05T03:27:18.262Z,28.13
2019-02-05T03:30:23.305Z,24.43
2019-02-05T03:33:27.708Z,27.30
2019-02-05T03:36:34.328Z,23.13
2019-02-05T03:39:38.606Z,25.00
2019-02-05T03:42:47.249Z,29.27
2019-02-05T03:45:51.836Z,31.87
2019-02-05T03:48:56.696Z,28.23
2019-02-05T03:52:19.278Z,25.60
2019-02-05T03:56:08.173Z,28.63
2019-02-05T03:59:43.331Z,24.70
2019-02-05T04:03:02.999Z,24.80
2019-02-05T04:06:16.931Z,25.57
2019-02-05T04:09:53.347Z,19.30
2019-02-05T04:13:13.269Z,21.63
2019-02-05T04:17:12.447Z,21.87
2019-02-05T04:20:53.564Z,20.80
2019-02-05T04:24:37.074Z,21.40
2019-02-05T04:28:28.461Z,18.60
2019-02-05T04:32:15.240Z,22.47
2019-02-05T04:35:55.362Z,23.30
2019-02-05T04:39:24.549Z,23.73
2019-02-05T04:43:00.877Z,22.93
2019-02-05T04:46:54.085Z,28.40
2019-02-05T04:50:48.939Z,21.93
2019-02-05T04:54:17.788Z,19.67
2019-02-05T04:58:05.215Z,22.10
2019-02-05T05:01:49.898Z,25.37
2019-02-05T05:05:38.163Z,13.87
2019-02-05T05:09:50.982Z,20.80
2019-02-05T05:12:55.257Z,20.60
2019-02-05T05:15:59.731Z,18.97
2019-02-05T05:19:06.067Z,20.87
2019-02-05T05:22:13.619Z,19.27
2019-02-05T05:25:20.027Z,18.30
2019-02-05T05:28:24.800Z,20.10
2019-02-05T05:31:29.554Z,19.67
2019-02-05T05:34:37.172Z,12.10
2019-02-05T05:37:41.473Z,13.70
2019-02-05T05:40:46.164Z,14.37
2019-02-05T05:43:50.454Z,15.73
2019-02-05T05:47:03.659Z,12.87
2019-02-05T05:50:10.599Z,13.47
2019-02-05T05:53:15.116Z,19.60
2019-02-05T05:56:22.171Z,12.63
2019-02-05T05:59:28.545Z,20.00
2019-02-05T06:02:35.300Z,19.10
2019-02-05T06:05:39.697Z,18.37
2019-02-05T06:08:43.993Z,15.73
2019-02-05T06:11:48.323Z,23.43
2019-02-05T06:14:52.904Z,19.33
2019-02-05T06:17:57.192Z,20.13
2019-02-05T06:21:01.586Z,20.17
2019-02-05T06:24:06.235Z,28.37
2019-02-05T06:27:10.847Z,30.77
2019-02-05T06:30:16.160Z,16.23
2019-02-05T06:33:23.543Z,19.43
2019-02-05T06:36:28.171Z,24.10
2019-02-05T06:39:32.445Z,23.50
2019-02-05T06:42:36.878Z,29.30
2019-02-05T06:45:41.682Z,28.90
2019-02-05T06:48:46.357Z,30.27
2019-02-05T06:51:50.658Z,49.07
2019-02-05T06:54:54.950Z,26.30
2019-02-05T06:57:59.289Z,22.70
2019-02-05T07:01:06.316Z,33.70
2019-02-05T07:04:10.601Z,34.07
2019-02-05T07:07:14.912Z,32.57
2019-02-05T07:10:21.063Z,31.70
2019-02-05T07:13:25.488Z,33.77
2019-02-05T07:16:29.831Z,26.93
2019-02-05T07:19:34.160Z,34.00
2019-02-05T07:22:38.746Z,28.50
2019-02-05T07:25:43.147Z,32.43
2019-02-05T07:28:58.199Z,27.90
2019-02-05T07:31:56.351Z,29.20
2019-02-05T07:35:01.259Z,24.87
2019-02-05T07:38:07.894Z,32.57
2019-02-05T07:41:12.199Z,31.77
2019-02-05T07:44:16.588Z,27.73
2019-02-05T07:47:23.379Z,24.63
2019-02-05T07:50:27.593Z,25.27
2019-02-05T07:53:33.277Z,28.53
2019-02-05T07:56:37.750Z,32.23
2019-02-05T07:59:47.010Z,30.07
2019-02-05T08:02:50.280Z,32.97
2019-02-05T08:05:54.585Z,25.50
2019-02-05T08:08:59.015Z,30.77
2019-02-05T08:12:03.326Z,29.33
2019-02-05T08:15:09.491Z,29.53
2019-02-05T08:18:17.135Z,28.17
2019-02-05T08:21:21.459Z,26.73
2019-02-05T08:24:25.887Z,30.90
2019-02-05T08:27:30.708Z,25.97
2019-02-05T08:30:41.185Z,29.83
2019-02-05T08:33:45.678Z,24.13
2019-02-05T08:36:49.989Z,23.03
2019-02-05T08:39:54.463Z,26.17
2019-02-05T08:42:58.795Z,32.97
2019-02-05T08:46:03.335Z,23.70
2019-02-05T08:49:07.630Z,20.83
2019-02-05T08:52:12.054Z,18.77
2019-02-05T08:55:18.223Z,19.50
2019-02-05T08:58:31.011Z,19.63
2019-02-05T09:01:36.453Z,21.73
2019-02-05T09:04:40.856Z,19.87
2019-02-05T09:07:45.223Z,24.20
2019-02-05T09:10:49.645Z,20.87
2019-02-05T09:13:54.083Z,22.83
2019-02-05T09:16:58.503Z,19.77
2019-02-05T09:20:02.813Z,21.73
2019-02-05T09:23:07.373Z,18.13
2019-02-05T09:26:11.788Z,17.73
2019-02-05T09:29:17.814Z,18.77
2019-02-05T09:32:22.148Z,21.30
2019-02-05T09:35:26.640Z,21.10
2019-02-05T09:38:31.098Z,16.60
2019-02-05T09:41:35.654Z,20.07
2019-02-05T09:44:39.961Z,20.27
2019-02-05T09:47:44.552Z,24.90
2019-02-05T09:50:49.242Z,15.63
2019-02-05T09:53:53.642Z,16.00
2019-02-05T09:56:59.160Z,17.73
2019-02-05T10:00:04.890Z,13.97
2019-02-05T10:03:09.726Z,16.63
2019-02-05T10:06:14.050Z,15.77
2019-02-05T10:09:18.948Z,12.33
2019-02-05T10:12:23.376Z,19.73
2019-02-05T10:15:29.896Z,17.50
2019-02-05T10:18:35.578Z,10.50
2019-02-05T10:21:39.910Z,22.20
2019-02-05T10:24:49.864Z,18.77
2019-02-05T10:27:55.678Z,11.53
2019-02-05T10:31:00.114Z,15.47
2019-02-05T10:34:05.133Z,21.53
2019-02-05T10:37:09.564Z,12.67
2019-02-05T10:40:14.379Z,18.77
2019-02-05T10:43:21.331Z,16.63
2019-02-05T10:46:28.950Z,13.37
2019-02-05T10:49:33.317Z,18.63
2019-02-05T10:52:37.687Z,15.67
2019-02-05T10:55:42.116Z,12.13
2019-02-05T10:58:46.487Z,10.73
2019-02-05T11:01:50.817Z,17.93
2019-02-05T11:04:55.401Z,20.23
2019-02-05T11:07:59.975Z,14.83
2019-02-05T11:11:04.289Z,17.00
2019-02-05T11:14:08.978Z,16.63
2019-02-05T11:17:13.323Z,17.20
2019-02-05T11:20:19.990Z,16.33
2019-02-05T11:23:27.130Z,16.17
2019-02-05T11:26:31.460Z,12.67
2019-02-05T11:29:38.739Z,15.20
2019-02-05T11:32:43.162Z,16.67
2019-02-05T11:35:47.487Z,11.90
2019-02-05T11:38:51.813Z,11.80
2019-02-05T11:41:56.809Z,20.80
2019-02-05T11:45:01.189Z,15.37
2019-02-05T11:48:08.617Z,10.43
2019-02-05T11:51:13.118Z,18.93
2019-02-05T11:54:17.631Z,17.10
2019-02-05T11:57:25.374Z,15.07
2019-02-05T12:00:51.865Z,12.93
2019-02-05T12:03:56.477Z,15.07
2019-02-05T12:07:01.017Z,15.60
2019-02-05T12:10:07.278Z,16.27
2019-02-05T12:13:11.803Z,17.37
2019-02-05T12:16:16.246Z,17.20
2019-02-05T12:19:20.715Z,17.37
2019-02-05T12:22:27.046Z,12.57
2019-02-05T12:25:31.424Z,12.47
2019-02-05T12:28:38.057Z,16.53
2019-02-05T12:31:42.742Z,15.77
2019-02-05T12:34:47.048Z,18.80
2019-02-05T12:37:51.558Z,22.20
2019-02-05T12:40:56.374Z,14.23
2019-02-05T12:44:00.712Z,11.87
2019-02-05T12:47:07.258Z,19.57
2019-02-05T12:50:24.347Z,17.30
2019-02-05T12:53:28.690Z,17.97
2019-02-05T12:56:33.101Z,8.87
2019-02-05T12:59:37.522Z,18.23
2019-02-05T13:02:41.864Z,15.33
2019-02-05T13:05:46.486Z,18.20
2019-02-05T13:08:50.893Z,17.97
2019-02-05T13:11:55.362Z,20.63
2019-02-05T13:14:59.687Z,16.67
2019-02-05T13:18:04.575Z,18.03
2019-02-05T13:21:08.982Z,15.00
2019-02-05T13:24:16.475Z,23.77
2019-02-05T13:27:19.549Z,20.27
2019-02-05T13:30:27.563Z,16.97
2019-02-05T13:33:31.844Z,22.53
2019-02-05T13:36:36.167Z,18.20
2019-02-05T13:39:43.582Z,18.70
2019-02-05T13:42:48.088Z,17.43
2019-02-05T13:45:52.923Z,12.93
2019-02-05T13:48:57.279Z,17.43
2019-02-05T13:52:01.758Z,16.37
2019-02-05T13:55:07.445Z,15.03
2019-02-05T13:58:12.925Z,12.27
2019-02-05T14:01:20.009Z,19.90
2019-02-05T14:04:23.595Z,13.17
2019-02-05T14:07:27.926Z,12.57
2019-02-05T14:10:34.556Z,12.93
2019-02-05T14:13:38.977Z,19.80
2019-02-05T14:16:43.506Z,14.57
2019-02-05T14:19:48.248Z,16.37
2019-02-05T14:22:52.757Z,15.63
2019-02-05T14:25:59.644Z,20.63
2019-02-05T14:29:03.238Z,18.77
2019-02-05T14:32:10.533Z,17.37
2019-02-05T14:35:15.629Z,16.90
2019-02-05T14:38:23.098Z,11.67
2019-02-05T14:41:27.524Z,24.10
2019-02-05T14:44:32.121Z,17.33
2019-02-05T14:47:36.535Z,17.03
2019-02-05T14:50:41.993Z,22.53
2019-02-05T14:53:46.316Z,14.23
2019-02-05T14:56:50.757Z,17.33
2019-02-05T14:59:55.112Z,18.27
2019-02-05T15:03:01.963Z,14.50
2019-02-05T15:06:06.008Z,22.93
2019-02-05T15:09:11.078Z,22.57
2019-02-05T15:12:15.556Z,15.63
2019-02-05T15:15:20.475Z,15.50
2019-02-05T15:18:25.575Z,17.20
2019-02-05T15:21:30.302Z,15.60
2019-02-05T15:24:37.445Z,13.87
2019-02-05T15:27:40.974Z,9.53
2019-02-05T15:30:46.140Z,18.73
2019-02-05T15:33:55.023Z,15.73
2019-02-05T15:36:59.349Z,16.67
2019-02-05T15:40:03.808Z,20.00
2019-02-05T15:43:08.493Z,20.30
2019-02-05T15:46:12.951Z,18.03
2019-02-05T15:49:19.865Z,13.53
2019-02-05T15:52:24.199Z,17.80
2019-02-05T15:55:28.540Z,12.60
2019-02-05T15:58:33.465Z,11.63
2019-02-05T16:01:37.822Z,13.67
2019-02-05T16:04:42.172Z,10.87
2019-02-05T16:07:46.915Z,22.33
2019-02-05T16:10:51.244Z,19.20
2019-02-05T16:13:55.580Z,15.40
2019-02-05T16:17:00.391Z,22.20
2019-02-05T16:20:05.536Z,13.20
2019-02-05T16:23:09.892Z,18.53
2019-02-05T16:26:14.596Z,19.30
2019-02-05T16:29:19.037Z,22.80
2019-02-05T16:32:23.400Z,17.03
2019-02-05T16:35:27.904Z,20.20
2019-02-05T16:38:32.399Z,17.27
2019-02-05T16:41:36.704Z,13.63
2019-02-05T16:44:41.083Z,21.93
2019-02-05T16:47:45.431Z,18.17
2019-02-05T16:50:50.023Z,18.70
2019-02-05T16:53:54.362Z,19.03
2019-02-05T16:56:58.741Z,21.43
2019-02-05T17:00:03.064Z,20.50
2019-02-05T17:03:07.639Z,25.83
2019-02-05T17:06:12.007Z,18.43
2019-02-05T17:09:17.397Z,20.63
2019-02-05T17:12:21.713Z,15.13
2019-02-05T17:15:26.236Z,19.93
2019-02-05T17:18:30.832Z,23.33
2019-02-05T17:21:35.198Z,16.60
2019-02-05T17:24:39.508Z,17.23
2019-02-05T17:27:43.849Z,23.43
2019-02-05T17:30:48.187Z,26.00
2019-02-05T17:33:52.601Z,28.53
2019-02-05T17:36:57.136Z,24.97
2019-02-05T17:40:01.720Z,24.83
2019-02-05T17:43:06.970Z,22.40
2019-02-05T17:46:11.502Z,19.20
2019-02-05T17:49:15.976Z,23.23
2019-02-05T17:52:20.279Z,20.27
2019-02-05T17:55:24.680Z,18.47
2019-02-05T17:58:29.019Z,31.43
2019-02-05T18:01:33.336Z,29.43
2019-02-05T18:04:38.088Z,19.73
2019-02-05T18:07:42.497Z,23.93
2019-02-05T18:10:47.441Z,31.93
2019-02-05T18:13:54.865Z,26.30
2019-02-05T18:16:59.192Z,14.93
2019-02-05T18:20:03.919Z,19.90
2019-02-05T18:23:08.308Z,21.60
2019-02-05T18:26:15.201Z,23.23
2019-02-05T18:29:19.610Z,34.03
2019-02-05T18:32:24.035Z,19.80
2019-02-05T18:35:31.594Z,16.47
2019-02-05T18:38:36.011Z,18.63
2019-02-05T18:41:40.340Z,19.27
2019-02-05T18:44:44.653Z,22.43
2019-02-05T18:47:48.993Z,21.40
2019-02-05T18:50:53.414Z,20.60
2019-02-05T18:53:59.446Z,15.17
2019-02-05T18:57:04.026Z,20.50
2019-02-05T19:00:24.450Z,24.07
2019-02-05T19:03:31.805Z,24.90
2019-02-05T19:06:36.226Z,24.43
2019-02-05T19:09:40.600Z,18.53
2019-02-05T19:12:44.957Z,28.73
2019-02-05T19:15:49.462Z,15.60
2019-02-05T19:18:54.058Z,17.40
2019-02-05T19:21:58.402Z,17.40
2019-02-05T19:25:17.690Z,20.40
2019-02-05T19:28:28.462Z,19.50
2019-02-05T19:31:35.776Z,26.00
2019-02-05T19:34:40.447Z,22.77
2019-02-05T19:37:44.802Z,18.00
2019-02-05T19:40:57.074Z,25.57
2019-02-05T19:43:55.459Z,25.53
2019-02-05T19:47:03.375Z,14.47
2019-02-05T19:50:07.910Z,21.07
2019-02-05T19:53:12.822Z,18.67
2019-02-05T19:56:17.257Z,23.97
2019-02-05T19:59:21.789Z,18.57
2019-02-05T20:02:26.174Z,28.63
2019-02-05T20:05:30.718Z,27.30
2019-02-05T20:08:36.830Z,27.03
2019-02-05T20:11:41.624Z,31.60
2019-02-05T20:14:46.132Z,28.53
2019-02-05T20:17:50.681Z,28.60
2019-02-05T20:20:55.138Z,20.07
2019-02-05T20:23:59.806Z,19.30
2019-02-05T20:27:04.732Z,23.97
2019-02-05T20:30:11.667Z,31.80
2019-02-05T20:33:16.008Z,30.83
2019-02-05T20:36:20.575Z,36.63
2019-02-05T20:39:28.224Z,38.23
2019-02-05T20:42:32.578Z,32.33
2019-02-05T20:45:40.061Z,33.70
2019-02-05T20:48:48.357Z,38.40
2019-02-05T20:51:53.171Z,34.20
2019-02-05T20:54:58.327Z,30.73
2019-02-05T20:58:03.336Z,32.30
2019-02-05T21:01:07.730Z,25.60
2019-02-05T21:04:21.338Z,24.33
2019-02-05T21:07:26.357Z,24.23
2019-02-05T21:10:30.676Z,19.77
2019-02-05T21:13:35.008Z,17.20
2019-02-05T21:16:39.799Z,18.20
2019-02-05T21:19:44.242Z,22.30
2019-02-05T21:22:56.706Z,20.67
2019-02-05T21:26:02.507Z,15.63
2019-02-05T21:29:06.807Z,15.87
2019-02-05T21:32:11.167Z,21.57
2019-02-05T21:35:15.689Z,27.80
2019-02-05T21:38:20.000Z,22.27
2019-02-05T21:41:24.489Z,20.27
2019-02-05T21:44:30.461Z,25.80
2019-02-05T21:47:36.962Z,18.03
2019-02-05T21:50:41.256Z,20.03
2019-02-05T21:53:46.747Z,19.63
2019-02-05T21:56:51.022Z,18.37
2019-02-05T21:59:55.458Z,31.23
2019-02-05T22:03:00.188Z,19.93
2019-02-05T22:06:05.171Z,21.97
2019-02-05T22:09:12.302Z,21.03
2019-02-05T22:12:16.670Z,31.07
2019-02-05T22:15:21.266Z,21.90
2019-02-05T22:18:25.580Z,19.10
2019-02-05T22:21:29.892Z,27.00
2019-02-05T22:24:34.214Z,24.37
2019-02-05T22:27:39.129Z,25.80
2019-02-05T22:30:43.457Z,29.80
2019-02-05T22:33:47.931Z,24.37
2019-02-05T22:36:52.345Z,27.70
2019-02-05T22:39:58.420Z,29.70
2019-02-05T22:43:02.752Z,36.80
2019-02-05T22:46:09.991Z,39.37
2019-02-05T22:49:14.695Z,35.70
2019-02-05T22:52:19.389Z,36.77
2019-02-05T22:55:23.957Z,32.27
2019-02-05T22:58:28.406Z,38.30
2019-02-05T23:01:57.729Z,39.33
2019-02-05T23:05:26.060Z,44.47
2019-02-05T23:08:32.426Z,43.87
2019-02-05T23:12:15.406Z,39.10
2019-02-05T23:15:22.585Z,49.53
2019-02-05T23:18:29.434Z,40.97
2019-02-05T23:21:34.745Z,50.00
2019-02-05T23:24:39.050Z,43.77
2019-02-05T23:27:43.380Z,52.50
2019-02-05T23:30:47.948Z,53.10
2019-02-05T23:33:52.464Z,47.63
2019-02-05T23:36:56.826Z,43.90
2019-02-05T23:40:01.205Z,48.23
2019-02-05T23:43:06.112Z,55.63
2019-02-05T23:46:13.174Z,48.73
2019-02-05T23:49:17.475Z,43.10
2019-02-05T23:52:21.966Z,54.10
2019-02-05T23:55:26.318Z,47.60
2019-02-05T23:58:30.614Z,43.50
